Terminal Aerodrome Forecast
Issued by NWS

Home | Current Version | Previous Version | Graphics & Text | Print | Product List | Glossary On
Versions: 1 2 3 4 5 6 7 8 9 10 11 12 13 14
418
FTUS43 KBIS 201123
TAFJMS
TAF
KJMS 201123Z 2012/2112 32007KT P6SM FEW200
     FM201700 35009KT P6SM FEW070
     FM202200 02006KT P6SM FEW080
     FM202300 09006KT P6SM FEW090
     FM210500 14006KT P6SM BKN200=

USA.gov is the U.S. government's official web portal to all federal, state and local government web resources and services.